createdAt,value
2019-03-09T00:01:49.699Z,4.40
2019-03-09T00:04:19.429Z,3.40
2019-03-09T00:06:48.951Z,3.27
2019-03-09T00:09:18.264Z,3.97
2019-03-09T00:11:48.075Z,3.50
2019-03-09T00:14:17.997Z,4.83
2019-03-09T00:16:47.604Z,4.03
2019-03-09T00:19:16.882Z,4.07
2019-03-09T00:21:46.395Z,4.60
2019-03-09T00:24:47.241Z,4.40
2019-03-09T00:27:41.709Z,3.97
2019-03-09T00:30:38.243Z,3.83
2019-03-09T00:33:07.464Z,3.93
2019-03-09T00:35:36.383Z,4.00
2019-03-09T00:38:06.245Z,3.53
2019-03-09T00:40:35.763Z,3.73
2019-03-09T00:43:04.791Z,4.07
2019-03-09T00:45:34.058Z,4.17
2019-03-09T00:48:03.195Z,4.07
2019-03-09T00:50:32.876Z,3.90
2019-03-09T00:53:02.038Z,3.83
2019-03-09T00:55:34.076Z,3.73
2019-03-09T00:58:03.402Z,3.80
2019-03-09T01:00:32.815Z,3.03
2019-03-09T01:03:02.588Z,3.53
2019-03-09T01:05:34.173Z,3.67
2019-03-09T01:08:03.609Z,4.03
2019-03-09T01:10:34.491Z,3.77
2019-03-09T01:13:06.452Z,3.77
2019-03-09T01:15:37.939Z,3.43
2019-03-09T01:18:12.411Z,3.70
2019-03-09T01:20:44.935Z,3.97
2019-03-09T01:23:14.006Z,4.77
2019-03-09T01:25:43.245Z,3.70
2019-03-09T01:28:12.608Z,4.10
2019-03-09T01:30:42.557Z,4.93
2019-03-09T01:33:11.922Z,4.87
2019-03-09T01:35:42.087Z,4.70
2019-03-09T01:38:12.250Z,4.43
2019-03-09T01:40:42.381Z,4.47
2019-03-09T01:43:34.566Z,4.17
2019-03-09T01:46:07.526Z,4.10
2019-03-09T01:48:36.893Z,4.10
2019-03-09T01:51:06.211Z,4.13
2019-03-09T01:53:36.978Z,4.30
2019-03-09T01:56:06.031Z,4.40
2019-03-09T01:58:35.683Z,4.20
2019-03-09T02:01:04.853Z,3.70
2019-03-09T02:03:36.180Z,4.27
2019-03-09T02:06:05.684Z,4.60
2019-03-09T02:08:37.599Z,4.17
2019-03-09T02:11:06.895Z,4.00
2019-03-09T02:13:40.820Z,3.87
2019-03-09T02:16:11.217Z,4.33
2019-03-09T02:18:40.286Z,3.30
2019-03-09T02:21:09.766Z,3.67
2019-03-09T02:23:39.661Z,3.43
2019-03-09T02:26:08.873Z,4.00
2019-03-09T02:28:38.778Z,4.00
2019-03-09T02:31:10.966Z,3.63
2019-03-09T02:33:41.280Z,4.43
2019-03-09T02:36:10.589Z,3.90
2019-03-09T02:38:47.690Z,4.37
2019-03-09T02:41:17.013Z,3.50
2019-03-09T02:43:46.217Z,2.97
2019-03-09T02:46:15.300Z,4.00
2019-03-09T02:48:44.559Z,3.50
2019-03-09T02:51:14.449Z,3.83
2019-03-09T02:53:43.796Z,2.80
2019-03-09T02:56:12.977Z,3.10
2019-03-09T02:58:42.407Z,3.63
2019-03-09T03:01:34.296Z,3.53
2019-03-09T03:04:03.819Z,3.20
2019-03-09T03:06:33.171Z,3.20
2019-03-09T03:09:03.012Z,3.80
2019-03-09T03:11:32.546Z,3.20
2019-03-09T03:14:01.810Z,3.20
2019-03-09T03:16:31.010Z,3.97
2019-03-09T03:19:00.614Z,3.30
2019-03-09T03:21:29.825Z,3.13
2019-03-09T03:23:59.225Z,3.37
2019-03-09T03:26:28.876Z,2.90
2019-03-09T03:28:58.339Z,3.57
2019-03-09T03:31:27.722Z,3.33
2019-03-09T03:33:57.018Z,3.37
2019-03-09T03:36:26.333Z,4.10
2019-03-09T03:38:55.394Z,3.80
2019-03-09T03:41:27.667Z,3.50
2019-03-09T03:43:57.195Z,3.30
2019-03-09T03:46:26.336Z,3.70
2019-03-09T03:48:55.909Z,3.30
2019-03-09T03:51:25.180Z,3.83
2019-03-09T03:53:54.608Z,3.73
2019-03-09T03:56:23.774Z,3.40
2019-03-09T03:58:53.087Z,3.07
2019-03-09T04:01:22.526Z,2.87
2019-03-09T04:03:52.086Z,3.10
2019-03-09T04:06:23.034Z,2.97
2019-03-09T04:08:52.834Z,2.83
2019-03-09T04:11:22.217Z,2.83
2019-03-09T04:13:51.278Z,2.50
2019-03-09T04:16:20.732Z,2.50
2019-03-09T04:18:50.342Z,2.13
2019-03-09T04:21:19.949Z,2.50
2019-03-09T04:23:49.660Z,1.80
2019-03-09T04:26:19.096Z,1.93
2019-03-09T04:28:48.248Z,1.97
2019-03-09T04:31:18.415Z,1.83
2019-03-09T04:33:47.459Z,1.20
2019-03-09T04:36:16.866Z,1.30
2019-03-09T04:38:46.076Z,1.50
2019-03-09T04:41:15.369Z,1.23
2019-03-09T04:43:44.446Z,1.00
2019-03-09T04:46:13.661Z,1.20
2019-03-09T04:48:43.109Z,1.00
2019-03-09T04:51:12.302Z,0.83
2019-03-09T04:53:41.796Z,1.27
2019-03-09T04:56:11.471Z,0.70
2019-03-09T04:58:40.879Z,0.80
2019-03-09T05:01:10.391Z,0.80
2019-03-09T05:03:39.650Z,0.90
2019-03-09T05:06:10.153Z,0.73
2019-03-09T05:08:41.948Z,0.70
2019-03-09T05:11:13.306Z,0.70
2019-03-09T05:13:44.952Z,0.63
2019-03-09T05:16:14.145Z,0.80
2019-03-09T05:18:43.642Z,0.90
2019-03-09T05:21:12.771Z,0.73
2019-03-09T05:23:42.560Z,0.73
2019-03-09T05:26:12.292Z,0.73
2019-03-09T05:28:41.814Z,1.30
2019-03-09T05:31:11.062Z,0.90
2019-03-09T05:33:40.249Z,1.00
2019-03-09T05:36:09.566Z,1.10
2019-03-09T05:38:38.768Z,1.00
2019-03-09T05:41:08.094Z,1.07
2019-03-09T05:43:37.056Z,0.70
2019-03-09T05:46:06.451Z,0.87
2019-03-09T05:48:35.869Z,1.00
2019-03-09T05:51:05.146Z,0.90
2019-03-09T05:53:34.718Z,1.00
2019-03-09T05:56:05.438Z,1.23
2019-03-09T05:58:34.582Z,1.20
2019-03-09T06:01:03.813Z,2.03
2019-03-09T06:03:33.107Z,2.20
2019-03-09T06:06:06.698Z,2.00
2019-03-09T06:08:36.049Z,1.80
2019-03-09T06:11:05.798Z,2.70
2019-03-09T06:13:37.963Z,2.70
2019-03-09T06:16:09.144Z,3.20
2019-03-09T06:18:39.155Z,3.13
2019-03-09T06:21:08.558Z,3.77
2019-03-09T06:23:38.716Z,3.50
2019-03-09T06:26:08.082Z,4.30
2019-03-09T06:28:37.423Z,3.77
2019-03-09T06:31:06.498Z,4.17
2019-03-09T06:33:39.089Z,4.03
2019-03-09T06:36:29.360Z,4.50
2019-03-09T06:38:59.830Z,5.77
2019-03-09T06:41:44.099Z,5.10
2019-03-09T06:44:13.312Z,7.97
2019-03-09T06:46:44.976Z,5.40
2019-03-09T06:49:14.451Z,5.17
2019-03-09T06:51:43.657Z,5.03
2019-03-09T06:54:13.012Z,3.73
2019-03-09T06:56:42.803Z,4.23
2019-03-09T06:59:12.540Z,3.57
2019-03-09T07:01:42.072Z,2.90
2019-03-09T07:04:11.462Z,4.57
2019-03-09T07:06:40.637Z,2.40
2019-03-09T07:09:09.970Z,3.27
2019-03-09T07:11:40.884Z,3.10
2019-03-09T07:14:27.697Z,2.77
2019-03-09T07:16:57.318Z,2.47
2019-03-09T07:19:26.522Z,2.70
2019-03-09T07:21:55.880Z,3.07
2019-03-09T07:24:25.713Z,2.97
2019-03-09T07:26:55.103Z,2.90
2019-03-09T07:29:28.194Z,3.10
2019-03-09T07:31:57.695Z,3.27
2019-03-09T07:34:27.102Z,3.57
2019-03-09T07:36:56.916Z,3.43
2019-03-09T07:39:26.415Z,3.67
2019-03-09T07:41:55.874Z,3.50
2019-03-09T07:44:25.340Z,3.80
2019-03-09T07:46:55.229Z,4.27
2019-03-09T07:49:24.645Z,4.80
2019-03-09T07:51:54.292Z,4.70
2019-03-09T07:54:23.947Z,6.10
2019-03-09T07:56:55.409Z,6.03
2019-03-09T07:59:24.546Z,6.60
2019-03-09T08:01:53.803Z,7.20
2019-03-09T08:04:23.022Z,5.83
2019-03-09T08:06:51.982Z,7.50
2019-03-09T08:09:20.951Z,6.93
2019-03-09T08:11:49.951Z,6.30
2019-03-09T08:14:18.897Z,6.20
2019-03-09T08:16:49.057Z,6.00
2019-03-09T08:19:18.430Z,5.80
2019-03-09T08:21:47.869Z,7.57
2019-03-09T08:24:18.544Z,5.90
2019-03-09T08:26:47.614Z,6.40
2019-03-09T08:29:17.309Z,6.27
2019-03-09T08:31:46.521Z,5.43
2019-03-09T08:34:15.683Z,5.93
2019-03-09T08:36:45.276Z,6.03
2019-03-09T08:39:14.403Z,5.60
2019-03-09T08:41:43.719Z,5.07
2019-03-09T08:44:13.154Z,5.30
2019-03-09T08:46:42.302Z,5.63
2019-03-09T08:49:11.616Z,5.40
2019-03-09T08:51:40.941Z,4.70
2019-03-09T08:54:10.623Z,5.20
2019-03-09T08:56:39.926Z,5.13
2019-03-09T08:59:09.385Z,5.40
2019-03-09T09:01:38.838Z,4.53
2019-03-09T09:04:08.014Z,4.40
2019-03-09T09:06:37.385Z,4.30
2019-03-09T09:09:07.363Z,5.10
2019-03-09T09:11:36.708Z,3.93
2019-03-09T09:14:06.227Z,4.87
2019-03-09T09:16:35.422Z,4.80
2019-03-09T09:19:04.825Z,6.17
2019-03-09T09:21:34.338Z,5.20
2019-03-09T09:24:04.070Z,4.40
2019-03-09T09:26:33.283Z,4.63
2019-03-09T09:29:02.770Z,4.70
2019-03-09T09:31:32.092Z,3.80
2019-03-09T09:34:01.333Z,4.27
2019-03-09T09:36:30.879Z,11.57
2019-03-09T09:39:00.065Z,10.87
2019-03-09T09:41:29.554Z,7.40
2019-03-09T09:43:59.056Z,4.70
2019-03-09T09:46:28.290Z,4.73
2019-03-09T09:48:57.752Z,5.00
2019-03-09T09:51:27.521Z,3.87
2019-03-09T09:53:56.520Z,4.50
2019-03-09T09:56:25.925Z,6.47
2019-03-09T09:58:55.206Z,6.00
2019-03-09T10:01:24.559Z,5.43
2019-03-09T10:03:53.942Z,3.50
2019-03-09T10:06:25.407Z,2.40
2019-03-09T10:08:54.805Z,2.60
2019-03-09T10:11:24.179Z,2.67
2019-03-09T10:13:53.684Z,3.43
2019-03-09T10:16:22.899Z,2.27
2019-03-09T10:18:52.019Z,2.40
2019-03-09T10:21:21.395Z,4.83
2019-03-09T10:23:50.901Z,2.63
2019-03-09T10:26:20.223Z,2.30
2019-03-09T10:28:50.237Z,2.83
2019-03-09T10:31:20.069Z,2.80
2019-03-09T10:33:49.834Z,3.27
2019-03-09T10:36:19.347Z,3.03
2019-03-09T10:38:49.057Z,2.87
2019-03-09T10:41:18.146Z,3.00
2019-03-09T10:43:47.116Z,3.17
2019-03-09T10:46:16.122Z,4.30
2019-03-09T10:48:45.418Z,4.67
2019-03-09T10:51:14.883Z,4.20
2019-03-09T10:53:44.452Z,3.37
2019-03-09T10:56:14.147Z,3.27
2019-03-09T10:58:43.449Z,4.00
2019-03-09T11:01:14.939Z,3.87
2019-03-09T11:03:43.930Z,2.83
2019-03-09T11:06:13.462Z,3.73
2019-03-09T11:08:42.831Z,3.90
2019-03-09T11:11:12.351Z,3.17
2019-03-09T11:13:51.225Z,4.07
2019-03-09T11:16:13.066Z,3.70
2019-03-09T11:18:42.456Z,4.60
2019-03-09T11:21:11.763Z,3.97
2019-03-09T11:23:41.019Z,3.07
2019-03-09T11:26:10.854Z,2.43
2019-03-09T11:28:40.341Z,2.63
2019-03-09T11:31:10.217Z,3.07
2019-03-09T11:33:39.800Z,5.90
2019-03-09T11:36:09.426Z,3.10
2019-03-09T11:38:39.017Z,3.00
2019-03-09T11:41:18.555Z,2.50
2019-03-09T11:43:39.747Z,2.70
2019-03-09T11:46:12.448Z,3.07
2019-03-09T11:48:41.751Z,1.77
2019-03-09T11:51:11.165Z,1.80
2019-03-09T11:53:40.719Z,2.10
2019-03-09T11:56:09.822Z,1.63
2019-03-09T11:58:39.118Z,2.53
2019-03-09T12:01:08.568Z,2.10
2019-03-09T12:03:38.138Z,1.90
2019-03-09T12:06:07.728Z,2.20
2019-03-09T12:08:37.053Z,1.87
2019-03-09T12:11:06.344Z,2.20
2019-03-09T12:13:35.964Z,2.67
2019-03-09T12:16:05.482Z,2.27
2019-03-09T12:18:34.821Z,2.10
2019-03-09T12:21:04.644Z,2.43
2019-03-09T12:23:33.881Z,1.97
2019-03-09T12:26:03.833Z,2.27
2019-03-09T12:28:33.527Z,3.00
2019-03-09T12:31:02.598Z,2.60
2019-03-09T12:33:31.794Z,1.80
2019-03-09T12:36:01.643Z,1.20
2019-03-09T12:38:31.081Z,1.30
2019-03-09T12:41:00.469Z,1.63
2019-03-09T12:43:29.572Z,1.63
2019-03-09T12:45:58.938Z,1.20
2019-03-09T12:48:28.168Z,1.30
2019-03-09T12:50:57.135Z,1.03
2019-03-09T12:53:26.266Z,1.23
2019-03-09T12:55:56.056Z,1.17
2019-03-09T12:58:26.068Z,0.87
2019-03-09T13:00:55.491Z,0.90
2019-03-09T13:03:25.670Z,1.07
2019-03-09T13:05:54.998Z,0.77
2019-03-09T13:08:24.584Z,1.10
2019-03-09T13:10:55.928Z,1.00
2019-03-09T13:13:25.864Z,0.90
2019-03-09T13:15:54.981Z,1.00
2019-03-09T13:18:26.154Z,1.30
2019-03-09T13:20:55.658Z,1.30
2019-03-09T13:23:24.809Z,0.80
2019-03-09T13:25:54.163Z,1.27
2019-03-09T13:28:23.560Z,1.10
2019-03-09T13:30:54.436Z,0.80
2019-03-09T13:33:23.837Z,1.10
2019-03-09T13:35:53.252Z,1.67
2019-03-09T13:38:22.543Z,1.27
2019-03-09T13:40:51.792Z,1.23
2019-03-09T13:43:21.005Z,1.20
2019-03-09T13:45:50.324Z,1.33
2019-03-09T13:48:19.908Z,1.43
2019-03-09T13:50:49.139Z,1.30
2019-03-09T13:53:18.453Z,1.20
2019-03-09T13:55:47.828Z,1.03
2019-03-09T13:58:17.148Z,1.10
2019-03-09T14:00:46.460Z,1.03
2019-03-09T14:03:16.445Z,1.30
2019-03-09T14:05:45.678Z,1.23
2019-03-09T14:08:14.779Z,1.83
2019-03-09T14:10:44.345Z,1.97
2019-03-09T14:13:16.744Z,1.23
2019-03-09T14:15:46.146Z,0.90
2019-03-09T14:18:15.547Z,1.67
2019-03-09T14:20:45.021Z,1.00
2019-03-09T14:23:14.327Z,1.07
2019-03-09T14:25:43.569Z,0.90
2019-03-09T14:28:13.506Z,1.90
2019-03-09T14:30:43.060Z,1.50
2019-03-09T14:33:13.284Z,1.10
2019-03-09T14:35:42.749Z,1.00
2019-03-09T14:38:12.076Z,1.10
2019-03-09T14:40:41.590Z,0.90
2019-03-09T14:43:11.466Z,1.30
2019-03-09T14:45:41.141Z,1.00
2019-03-09T14:48:10.524Z,1.30
2019-03-09T14:50:39.888Z,1.00
2019-03-09T14:53:09.198Z,0.90
2019-03-09T14:55:38.717Z,1.30
2019-03-09T14:58:07.750Z,1.00
2019-03-09T15:00:37.036Z,1.93
2019-03-09T15:03:06.707Z,1.57
2019-03-09T15:05:36.666Z,1.30
2019-03-09T15:08:06.062Z,1.80
2019-03-09T15:10:35.644Z,1.80
2019-03-09T15:13:05.036Z,1.47
2019-03-09T15:15:34.797Z,2.80
2019-03-09T15:18:04.106Z,4.67
2019-03-09T15:20:33.363Z,13.53
2019-03-09T15:23:03.137Z,5.33
2019-03-09T15:25:32.632Z,4.90
2019-03-09T15:28:01.942Z,3.60
2019-03-09T15:30:31.132Z,3.40
2019-03-09T15:33:00.446Z,3.20
2019-03-09T15:35:29.779Z,3.50
2019-03-09T15:37:59.075Z,2.23
2019-03-09T15:40:28.229Z,2.17
2019-03-09T15:42:58.088Z,2.30
2019-03-09T15:45:28.469Z,2.43
2019-03-09T15:47:57.819Z,1.73
2019-03-09T15:50:27.306Z,2.50
2019-03-09T15:52:57.011Z,3.27
2019-03-09T15:55:26.563Z,3.27
2019-03-09T15:57:55.763Z,3.47
2019-03-09T16:00:24.896Z,2.30
2019-03-09T16:02:54.486Z,1.63
2019-03-09T16:05:23.775Z,2.17
2019-03-09T16:07:52.793Z,2.87
2019-03-09T16:10:21.800Z,1.57
2019-03-09T16:12:51.530Z,2.10
2019-03-09T16:15:20.909Z,3.53
2019-03-09T16:17:50.525Z,3.13
2019-03-09T16:20:19.946Z,3.60
2019-03-09T16:22:49.381Z,2.80
2019-03-09T16:25:18.585Z,3.20
2019-03-09T16:27:47.884Z,3.10
2019-03-09T16:30:17.695Z,3.37
2019-03-09T16:32:50.219Z,2.70
2019-03-09T16:35:19.745Z,3.53
2019-03-09T16:37:48.877Z,2.00
2019-03-09T16:40:18.376Z,1.50
2019-03-09T16:42:48.107Z,1.80
2019-03-09T16:45:17.663Z,1.90
2019-03-09T16:47:47.230Z,0.60
2019-03-09T16:50:16.507Z,0.80
2019-03-09T16:52:46.935Z,4.27
2019-03-09T16:55:16.331Z,1.67
2019-03-09T16:57:46.034Z,0.83
2019-03-09T17:00:16.482Z,2.27
2019-03-09T17:02:45.873Z,1.20
2019-03-09T17:05:15.045Z,1.03
2019-03-09T17:07:44.542Z,1.77
2019-03-09T17:10:13.868Z,0.80
2019-03-09T17:12:43.461Z,1.17
2019-03-09T17:15:12.974Z,0.87
2019-03-09T17:17:42.358Z,0.80
2019-03-09T17:20:12.056Z,1.40
2019-03-09T17:22:41.941Z,1.00
2019-03-09T17:25:11.677Z,1.20
2019-03-09T17:27:41.193Z,1.30
2019-03-09T17:30:12.065Z,1.20
2019-03-09T17:32:41.338Z,0.90
2019-03-09T17:35:10.745Z,3.03
2019-03-09T17:37:40.195Z,1.50
2019-03-09T17:40:09.850Z,1.47
2019-03-09T17:42:39.139Z,1.23
2019-03-09T17:45:09.959Z,1.17
2019-03-09T17:47:39.782Z,1.40
2019-03-09T17:50:09.850Z,1.43
2019-03-09T17:52:39.421Z,1.17
2019-03-09T17:55:08.914Z,1.63
2019-03-09T17:57:38.206Z,1.30
2019-03-09T18:00:11.386Z,1.27
2019-03-09T18:02:39.938Z,1.53
2019-03-09T18:05:09.693Z,1.10
2019-03-09T18:07:39.026Z,1.40
2019-03-09T18:10:10.660Z,2.60
2019-03-09T18:12:40.568Z,1.30
2019-03-09T18:15:10.165Z,1.20
2019-03-09T18:17:39.456Z,0.90
2019-03-09T18:20:09.272Z,1.40
2019-03-09T18:22:38.629Z,1.37
2019-03-09T18:25:08.405Z,1.47
2019-03-09T18:27:37.912Z,1.40
2019-03-09T18:30:07.305Z,1.60
2019-03-09T18:32:36.848Z,1.40
2019-03-09T18:35:06.622Z,1.90
2019-03-09T18:37:36.042Z,2.17
2019-03-09T18:40:05.768Z,1.37
2019-03-09T18:42:35.335Z,1.43
2019-03-09T18:45:04.988Z,1.63
2019-03-09T18:47:34.577Z,1.10
2019-03-09T18:50:04.244Z,2.00
2019-03-09T18:52:33.536Z,1.50
2019-03-09T18:55:02.905Z,1.50
2019-03-09T18:57:32.778Z,1.60
2019-03-09T19:00:02.189Z,1.77
2019-03-09T19:02:33.199Z,1.60
2019-03-09T19:05:02.529Z,1.50
2019-03-09T19:07:32.097Z,2.03
2019-03-09T19:10:01.520Z,2.30
2019-03-09T19:12:30.888Z,1.37
2019-03-09T19:15:00.288Z,1.23
2019-03-09T19:17:29.366Z,2.73
2019-03-09T19:19:58.629Z,2.27
2019-03-09T19:22:28.215Z,4.40
2019-03-09T19:24:57.623Z,3.40
2019-03-09T19:27:27.103Z,7.87
2019-03-09T19:29:56.369Z,3.40
2019-03-09T19:32:26.068Z,1.73
2019-03-09T19:34:56.049Z,2.60
2019-03-09T19:37:25.323Z,3.80
2019-03-09T19:39:54.892Z,2.30
2019-03-09T19:42:26.490Z,2.47
2019-03-09T19:44:55.881Z,2.30
2019-03-09T19:47:24.965Z,1.87
2019-03-09T19:49:54.478Z,2.50
2019-03-09T19:52:23.676Z,4.17
2019-03-09T19:54:53.386Z,2.47
2019-03-09T19:57:22.741Z,3.53
2019-03-09T19:59:52.294Z,2.97
2019-03-09T20:02:21.477Z,2.40
2019-03-09T20:04:50.790Z,2.10
2019-03-09T20:07:20.255Z,1.70
2019-03-09T20:09:49.660Z,1.70
2019-03-09T20:12:20.758Z,2.53
2019-03-09T20:14:49.939Z,2.47
2019-03-09T20:17:19.224Z,3.17
2019-03-09T20:19:48.854Z,3.33
2019-03-09T20:22:18.442Z,3.60
2019-03-09T20:24:48.203Z,2.60
2019-03-09T20:27:17.858Z,2.10
2019-03-09T20:29:47.468Z,4.00
2019-03-09T20:32:16.851Z,4.20
2019-03-09T20:34:46.261Z,2.37
2019-03-09T20:37:15.579Z,2.33
2019-03-09T20:39:44.776Z,2.93
2019-03-09T20:42:13.952Z,2.10
2019-03-09T20:44:43.903Z,2.00
2019-03-09T20:47:13.963Z,1.90
2019-03-09T20:49:43.604Z,1.73
2019-03-09T20:52:12.919Z,2.30
2019-03-09T20:54:42.203Z,2.40
2019-03-09T20:57:11.387Z,9.37
2019-03-09T20:59:43.915Z,5.10
2019-03-09T21:02:13.385Z,2.63
2019-03-09T21:04:42.823Z,2.50
2019-03-09T21:07:12.446Z,2.63
2019-03-09T21:09:42.306Z,2.10
2019-03-09T21:12:12.014Z,2.10
2019-03-09T21:14:41.523Z,2.33
2019-03-09T21:17:11.388Z,1.90
2019-03-09T21:19:41.122Z,1.80
2019-03-09T21:22:10.450Z,1.63
2019-03-09T21:24:39.512Z,2.17
2019-03-09T21:27:08.927Z,2.73
2019-03-09T21:29:38.315Z,3.87
2019-03-09T21:32:08.023Z,5.27
2019-03-09T21:34:37.736Z,3.80
2019-03-09T21:37:07.026Z,3.20
2019-03-09T21:39:36.864Z,3.13
2019-03-09T21:42:06.671Z,5.53
2019-03-09T21:44:35.950Z,3.17
2019-03-09T21:47:05.412Z,3.17
2019-03-09T21:49:35.115Z,3.60
2019-03-09T21:52:04.648Z,3.97
2019-03-09T21:54:33.958Z,4.10
2019-03-09T21:57:03.648Z,4.90
2019-03-09T21:59:32.975Z,3.20
2019-03-09T22:02:02.400Z,2.80
2019-03-09T22:04:31.616Z,2.23
2019-03-09T22:07:01.123Z,2.10
2019-03-09T22:09:30.969Z,3.53
2019-03-09T22:12:00.428Z,3.60
2019-03-09T22:14:29.973Z,2.17
2019-03-09T22:17:02.383Z,2.37
2019-03-09T22:19:32.282Z,2.50
2019-03-09T22:22:01.503Z,2.53
2019-03-09T22:24:30.885Z,2.47
2019-03-09T22:27:00.452Z,1.83
2019-03-09T22:29:30.141Z,1.57
2019-03-09T22:31:59.962Z,2.83
2019-03-09T22:34:29.997Z,2.00
2019-03-09T22:36:59.644Z,1.97
2019-03-09T22:39:29.083Z,2.67
2019-03-09T22:41:59.991Z,2.00
2019-03-09T22:44:29.152Z,2.40
2019-03-09T22:46:58.911Z,2.33
2019-03-09T22:49:28.423Z,2.13
2019-03-09T22:51:57.920Z,2.40
2019-03-09T22:54:27.204Z,2.60
2019-03-09T22:56:57.153Z,2.70
2019-03-09T22:59:27.157Z,2.77
2019-03-09T23:01:56.124Z,2.50
2019-03-09T23:04:25.641Z,2.97
2019-03-09T23:06:55.229Z,2.90
2019-03-09T23:09:24.442Z,2.07
2019-03-09T23:11:54.047Z,2.50
2019-03-09T23:14:23.415Z,3.57
2019-03-09T23:16:52.720Z,3.33
2019-03-09T23:19:21.851Z,3.57
2019-03-09T23:21:50.993Z,3.60
2019-03-09T23:24:21.342Z,4.20
2019-03-09T23:26:50.729Z,4.80
2019-03-09T23:29:19.810Z,4.40
2019-03-09T23:31:49.339Z,4.50
2019-03-09T23:34:18.870Z,4.83
2019-03-09T23:36:48.233Z,4.73
2019-03-09T23:39:17.723Z,4.73
2019-03-09T23:41:47.478Z,4.57
2019-03-09T23:44:16.858Z,4.40
2019-03-09T23:46:46.042Z,3.70
2019-03-09T23:49:15.203Z,3.13
2019-03-09T23:51:44.359Z,3.50
2019-03-09T23:54:13.844Z,3.20
2019-03-09T23:56:43.075Z,3.70
2019-03-09T23:59:12.708Z,2.87
